Grand Forks, ND (58201)

20:10 CDT le 04 septembre 2015 (GMT -0500)
APRSWXNET | | Change Station
CLOSE
Current Station
Stations météorologiques personnelles
Location: Grand Forks Air Force Base, ND
Altitude: 846 ft
Stations météo à proximité

Alt. 846 ft 47.89 °N, 97.16 °W | Updated 26 minutes ago

Nuageux
Nuageux
76 ° F
Paraît 77 ° F
N
2
Vent Variable Vent de SSE
Gusts 5.0 mph

Aujourd'hui
Haut(e) -- | Bas -- ° F
--% Risque de précip.
Hier
Haut(e) -- | Bas -- ° F
Precip. -- pouce
6:50 AM 8:03 PM
Lune gibbeuse décroissante, 54% visible
Pression 29.81 pouce
Visibilité 10.0 Miles terrestres
Nuages Nuages épars 3200 ft
Nuages épars 13000 ft
indice de chaleur 77 ° F
Point de rosée 70 ° F
Humidité 82%
Précipitations pouce
Profondeur de la couche neigeuse Non disponible.
UV 0 sur 12
Pollen 11.60 sur 12
Qualité de l'air Non disponible.
Flu Activity Non disponible.
METAR KGFK 050053Z 16004KT 10SM SCT032 SCT130 23/20 A2982 RMK AO2 SLP095 T02330200
Pression 29.81 pouce
Visibilité 10.0 Miles terrestres
Nuages Nuages épars 3200 ft
Nuages épars 13000 ft
indice de chaleur 77 ° F
Point de rosée 70 ° F
Humidité 82%
Précipitations pouce
Profondeur de la couche neigeuse Non disponible.
UV 0 sur 12
Pollen 11.60 sur 12
Qualité de l'air Non disponible.
Flu Activity Non disponible.
METAR KGFK 050053Z 16004KT 10SM SCT032 SCT130 23/20 A2982 RMK AO2 SLP095 T02330200

10-Day Weather Forecast

×

Almanac

Astronomie

Sep. 04, 2015 Lever Coucher
Temps réel
Crépuscule civil
Crépuscule nautique
Crépuscule astronomique
Lune
Durée de lumière visible
Longueur du jour
Tomorrow will be .
, % of the Moon is Illuminated

Extrêmes aujourd'hui

State Highs State Lows

Community

WunderPhotos

Upload Photos

1,852,372 Photos téléchargées !

WunderBlogs® & News

Nearby

Qualité de l'air

  Qualité de l'air Indice de la qualité de l'air Polluant
Not available.

Épaisseur de neige

Station Depth Altitude

Activité sismique

Ville Distance Mag. Time & Date
Minimum magnitude displayed is 2.5.

Températures des eaux côtières

Lieu Température

Stations

Stations météo à proximité

Emplacement de la station Température Refroidissement éolien Point de rosée Humidité Vent Precip. Alt. Mise à jour Type